sensor_id;sensor_type;location;lat;lon;timestamp;temperature;humidity
78902;DHT22;70441;44.758;37.686;2023-07-31T00:00:59;23.29;65.48
78902;DHT22;70441;44.758;37.686;2023-07-31T00:02:00;23.26;65.75
78902;DHT22;70441;44.758;37.686;2023-07-31T00:03:02;23.24;66.69
78902;DHT22;70441;44.758;37.686;2023-07-31T00:04:04;23.26;66.93
78902;DHT22;70441;44.758;37.686;2023-07-31T00:05:08;23.26;66.70
78902;DHT22;70441;44.758;37.686;2023-07-31T00:06:09;23.26;66.71
78902;DHT22;70441;44.758;37.686;2023-07-31T00:07:11;23.24;66.96
78902;DHT22;70441;44.758;37.686;2023-07-31T00:08:13;23.23;67.21
78902;DHT22;70441;44.758;37.686;2023-07-31T00:09:14;23.26;67.92
78902;DHT22;70441;44.758;37.686;2023-07-31T00:10:16;23.22;67.82
78902;DHT22;70441;44.758;37.686;2023-07-31T00:11:21;23.22;68.20
78902;DHT22;70441;44.758;37.686;2023-07-31T00:12:23;23.22;68.29
78902;DHT22;70441;44.758;37.686;2023-07-31T00:13:25;23.19;68.25
78902;DHT22;70441;44.758;37.686;2023-07-31T00:14:26;23.19;68.46
78902;DHT22;70441;44.758;37.686;2023-07-31T00:15:28;23.15;68.35
78902;DHT22;70441;44.758;37.686;2023-07-31T00:16:30;23.15;68.58
78902;DHT22;70441;44.758;37.686;2023-07-31T00:17:32;23.16;68.76
78902;DHT22;70441;44.758;37.686;2023-07-31T00:18:34;23.18;69.20
78902;DHT22;70441;44.758;37.686;2023-07-31T00:19:36;23.16;68.90
78902;DHT22;70441;44.758;37.686;2023-07-31T00:20:37;23.19;68.73
78902;DHT22;70441;44.758;37.686;2023-07-31T00:21:39;23.18;68.78
78902;DHT22;70441;44.758;37.686;2023-07-31T00:22:40;23.15;69.06
78902;DHT22;70441;44.758;37.686;2023-07-31T00:23:42;23.15;69.04
78902;DHT22;70441;44.758;37.686;2023-07-31T00:24:43;23.15;69.00
78902;DHT22;70441;44.758;37.686;2023-07-31T00:25:45;23.13;69.13
78902;DHT22;70441;44.758;37.686;2023-07-31T00:26:47;23.12;69.39
78902;DHT22;70441;44.758;37.686;2023-07-31T00:27:48;23.08;69.38
78902;DHT22;70441;44.758;37.686;2023-07-31T00:28:50;23.09;69.52
78902;DHT22;70441;44.758;37.686;2023-07-31T00:29:51;23.06;69.89
78902;DHT22;70441;44.758;37.686;2023-07-31T00:30:53;23.05;70.16
78902;DHT22;70441;44.758;37.686;2023-07-31T00:31:54;23.04;70.31
78902;DHT22;70441;44.758;37.686;2023-07-31T00:32:56;23.04;70.54
78902;DHT22;70441;44.758;37.686;2023-07-31T00:33:58;22.98;70.37
78902;DHT22;70441;44.758;37.686;2023-07-31T00:34:59;22.99;69.70
78902;DHT22;70441;44.758;37.686;2023-07-31T00:36:01;23.04;70.22
78902;DHT22;70441;44.758;37.686;2023-07-31T00:37:02;23.04;70.19
78902;DHT22;70441;44.758;37.686;2023-07-31T00:38:05;23.04;70.50
78902;DHT22;70441;44.758;37.686;2023-07-31T00:39:08;23.04;70.51
78902;DHT22;70441;44.758;37.686;2023-07-31T00:40:11;23.01;70.65
78902;DHT22;70441;44.758;37.686;2023-07-31T00:41:12;22.99;70.97
78902;DHT22;70441;44.758;37.686;2023-07-31T00:42:14;22.97;71.18
78902;DHT22;70441;44.758;37.686;2023-07-31T00:43:16;22.95;71.27
78902;DHT22;70441;44.758;37.686;2023-07-31T00:44:18;22.92;71.48
78902;DHT22;70441;44.758;37.686;2023-07-31T00:45:19;22.92;70.14
78902;DHT22;70441;44.758;37.686;2023-07-31T00:46:24;22.91;70.67
78902;DHT22;70441;44.758;37.686;2023-07-31T00:47:25;22.92;70.69
78902;DHT22;70441;44.758;37.686;2023-07-31T00:48:27;22.94;71.31
78902;DHT22;70441;44.758;37.686;2023-07-31T00:49:30;22.92;71.38
78902;DHT22;70441;44.758;37.686;2023-07-31T00:50:33;22.92;70.04
78902;DHT22;70441;44.758;37.686;2023-07-31T00:51:34;22.94;68.80
78902;DHT22;70441;44.758;37.686;2023-07-31T00:52:36;22.95;67.50
78902;DHT22;70441;44.758;37.686;2023-07-31T00:53:43;23.02;68.73
78902;DHT22;70441;44.758;37.686;2023-07-31T00:54:46;23.02;70.06
78902;DHT22;70441;44.758;37.686;2023-07-31T00:55:48;23.05;71.15
78902;DHT22;70441;44.758;37.686;2023-07-31T00:56:50;22.99;71.79
78902;DHT22;70441;44.758;37.686;2023-07-31T00:57:54;22.92;72.16
78902;DHT22;70441;44.758;37.686;2023-07-31T00:58:57;22.90;70.89
78902;DHT22;70441;44.758;37.686;2023-07-31T00:59:58;22.91;69.99
78902;DHT22;70441;44.758;37.686;2023-07-31T01:01:00;22.94;70.54
78902;DHT22;70441;44.758;37.686;2023-07-31T01:02:02;22.95;71.15
78902;DHT22;70441;44.758;37.686;2023-07-31T01:03:03;22.94;71.32
78902;DHT22;70441;44.758;37.686;2023-07-31T01:04:05;22.92;71.58
78902;DHT22;70441;44.758;37.686;2023-07-31T01:05:07;22.90;72.36
78902;DHT22;70441;44.758;37.686;2023-07-31T01:06:22;22.88;72.18
78902;DHT22;70441;44.758;37.686;2023-07-31T01:10:30;22.87;68.79
78902;DHT22;70441;44.758;37.686;2023-07-31T01:11:46;22.91;68.05
78902;DHT22;70441;44.758;37.686;2023-07-31T01:12:51;22.95;67.37
78902;DHT22;70441;44.758;37.686;2023-07-31T01:13:53;22.95;70.04
78902;DHT22;70441;44.758;37.686;2023-07-31T01:15:06;22.94;67.58
78902;DHT22;70441;44.758;37.686;2023-07-31T01:16:09;22.95;65.87
78902;DHT22;70441;44.758;37.686;2023-07-31T01:17:11;22.98;65.60
78902;DHT22;70441;44.758;37.686;2023-07-31T01:18:18;23.01;64.80
78902;DHT22;70441;44.758;37.686;2023-07-31T01:19:22;23.04;64.32
78902;DHT22;70441;44.758;37.686;2023-07-31T01:20:26;23.08;63.44
78902;DHT22;70441;44.758;37.686;2023-07-31T01:24:07;23.16;64.68
78902;DHT22;70441;44.758;37.686;2023-07-31T01:26:28;23.18;65.88
78902;DHT22;70441;44.758;37.686;2023-07-31T01:27:34;23.18;66.75
78902;DHT22;70441;44.758;37.686;2023-07-31T01:30:16;23.08;66.22
78902;DHT22;70441;44.758;37.686;2023-07-31T01:31:23;23.09;65.11
78902;DHT22;70441;44.758;37.686;2023-07-31T01:32:28;23.12;62.64
78902;DHT22;70441;44.758;37.686;2023-07-31T01:33:30;23.15;63.45
78902;DHT22;70441;44.758;37.686;2023-07-31T01:34:32;23.16;63.21
78902;DHT22;70441;44.758;37.686;2023-07-31T01:35:34;23.18;61.47
78902;DHT22;70441;44.758;37.686;2023-07-31T01:36:37;23.24;61.62
78902;DHT22;70441;44.758;37.686;2023-07-31T01:37:39;23.26;61.29
78902;DHT22;70441;44.758;37.686;2023-07-31T01:38:40;23.30;60.85
78902;DHT22;70441;44.758;37.686;2023-07-31T01:39:42;23.30;61.43
78902;DHT22;70441;44.758;37.686;2023-07-31T01:40:43;23.32;59.89
78902;DHT22;70441;44.758;37.686;2023-07-31T01:41:45;23.43;59.67
78902;DHT22;70441;44.758;37.686;2023-07-31T01:42:47;23.46;60.05
78902;DHT22;70441;44.758;37.686;2023-07-31T01:43:49;23.49;59.89
78902;DHT22;70441;44.758;37.686;2023-07-31T01:44:51;23.53;60.44
78902;DHT22;70441;44.758;37.686;2023-07-31T01:45:53;23.53;60.73
78902;DHT22;70441;44.758;37.686;2023-07-31T01:46:55;23.50;60.42
78902;DHT22;70441;44.758;37.686;2023-07-31T01:47:57;23.51;60.86
78902;DHT22;70441;44.758;37.686;2023-07-31T01:48:58;23.49;61.10
78902;DHT22;70441;44.758;37.686;2023-07-31T01:50:00;23.50;59.28
78902;DHT22;70441;44.758;37.686;2023-07-31T01:51:01;23.54;58.65
78902;DHT22;70441;44.758;37.686;2023-07-31T01:52:04;23.58;58.43
78902;DHT22;70441;44.758;37.686;2023-07-31T01:53:06;23.61;58.68
78902;DHT22;70441;44.758;37.686;2023-07-31T01:54:08;23.58;59.20
78902;DHT22;70441;44.758;37.686;2023-07-31T01:55:10;23.58;60.11
78902;DHT22;70441;44.758;37.686;2023-07-31T01:56:11;23.58;60.25
78902;DHT22;70441;44.758;37.686;2023-07-31T01:57:13;23.57;60.40
78902;DHT22;70441;44.758;37.686;2023-07-31T01:58:15;23.56;60.93
78902;DHT22;70441;44.758;37.686;2023-07-31T01:59:16;23.58;61.25
78902;DHT22;70441;44.758;37.686;2023-07-31T02:00:18;23.57;59.67
78902;DHT22;70441;44.758;37.686;2023-07-31T02:01:20;23.58;59.53
78902;DHT22;70441;44.758;37.686;2023-07-31T02:02:22;23.60;59.37
78902;DHT22;70441;44.758;37.686;2023-07-31T02:03:24;23.61;58.68
78902;DHT22;70441;44.758;37.686;2023-07-31T02:04:27;23.61;59.18
78902;DHT22;70441;44.758;37.686;2023-07-31T02:05:30;23.63;59.40
78902;DHT22;70441;44.758;37.686;2023-07-31T02:06:32;23.61;60.15
78902;DHT22;70441;44.758;37.686;2023-07-31T02:07:33;23.60;59.65
78902;DHT22;70441;44.758;37.686;2023-07-31T02:08:35;23.63;57.81
78902;DHT22;70441;44.758;37.686;2023-07-31T02:09:37;23.65;58.41
78902;DHT22;70441;44.758;37.686;2023-07-31T02:10:39;23.63;59.87
78902;DHT22;70441;44.758;37.686;2023-07-31T02:11:40;23.61;59.87
78902;DHT22;70441;44.758;37.686;2023-07-31T02:12:42;23.58;59.19
78902;DHT22;70441;44.758;37.686;2023-07-31T02:13:43;23.61;59.18
78902;DHT22;70441;44.758;37.686;2023-07-31T02:14:45;23.64;59.70
78902;DHT22;70441;44.758;37.686;2023-07-31T02:15:48;23.64;59.76
78902;DHT22;70441;44.758;37.686;2023-07-31T02:16:49;23.61;58.40
78902;DHT22;70441;44.758;37.686;2023-07-31T02:17:53;23.64;59.04
78902;DHT22;70441;44.758;37.686;2023-07-31T02:18:55;23.65;59.61
78902;DHT22;70441;44.758;37.686;2023-07-31T02:19:57;23.63;59.51
78902;DHT22;70441;44.758;37.686;2023-07-31T02:21:00;23.67;59.36
78902;DHT22;70441;44.758;37.686;2023-07-31T02:22:01;23.68;59.51
78902;DHT22;70441;44.758;37.686;2023-07-31T02:23:03;23.71;59.83
78902;DHT22;70441;44.758;37.686;2023-07-31T02:24:04;23.64;59.91
78902;DHT22;70441;44.758;37.686;2023-07-31T02:25:06;23.65;59.84
78902;DHT22;70441;44.758;37.686;2023-07-31T02:26:09;23.64;60.12
78902;DHT22;70441;44.758;37.686;2023-07-31T02:27:11;23.64;59.39
78902;DHT22;70441;44.758;37.686;2023-07-31T02:28:12;23.64;58.64
78902;DHT22;70441;44.758;37.686;2023-07-31T02:29:14;23.70;58.70
78902;DHT22;70441;44.758;37.686;2023-07-31T02:30:15;23.68;58.40
78902;DHT22;70441;44.758;37.686;2023-07-31T02:31:22;23.74;58.09
78902;DHT22;70441;44.758;37.686;2023-07-31T02:32:25;23.72;58.72
78902;DHT22;70441;44.758;37.686;2023-07-31T02:33:26;23.75;58.89
78902;DHT22;70441;44.758;37.686;2023-07-31T02:34:28;23.74;57.71
78902;DHT22;70441;44.758;37.686;2023-07-31T02:35:31;23.77;57.73
78902;DHT22;70441;44.758;37.686;2023-07-31T02:36:32;23.79;58.00
78902;DHT22;70441;44.758;37.686;2023-07-31T02:37:34;23.82;58.10
78902;DHT22;70441;44.758;37.686;2023-07-31T02:38:36;23.81;57.04
78902;DHT22;70441;44.758;37.686;2023-07-31T02:39:38;23.91;56.58
78902;DHT22;70441;44.758;37.686;2023-07-31T02:40:40;23.94;56.38
78902;DHT22;70441;44.758;37.686;2023-07-31T02:41:44;23.95;56.64
78902;DHT22;70441;44.758;37.686;2023-07-31T02:42:46;23.96;56.63
78902;DHT22;70441;44.758;37.686;2023-07-31T02:43:48;24.02;56.27
78902;DHT22;70441;44.758;37.686;2023-07-31T02:44:49;24.06;55.94
78902;DHT22;70441;44.758;37.686;2023-07-31T02:45:56;24.10;55.77
78902;DHT22;70441;44.758;37.686;2023-07-31T02:46:58;24.16;55.30
78902;DHT22;70441;44.758;37.686;2023-07-31T02:48:00;24.20;55.24
78902;DHT22;70441;44.758;37.686;2023-07-31T02:49:02;24.26;55.06
78902;DHT22;70441;44.758;37.686;2023-07-31T02:50:03;24.33;55.32
78902;DHT22;70441;44.758;37.686;2023-07-31T02:51:10;24.37;55.78
78902;DHT22;70441;44.758;37.686;2023-07-31T02:52:12;24.37;56.26
78902;DHT22;70441;44.758;37.686;2023-07-31T02:53:13;24.43;55.87
78902;DHT22;70441;44.758;37.686;2023-07-31T02:54:15;24.46;55.31
78902;DHT22;70441;44.758;37.686;2023-07-31T02:55:17;24.53;55.40
78902;DHT22;70441;44.758;37.686;2023-07-31T02:56:18;24.58;54.45
78902;DHT22;70441;44.758;37.686;2023-07-31T02:57:20;24.61;54.88
78902;DHT22;70441;44.758;37.686;2023-07-31T02:58:22;24.61;55.07
78902;DHT22;70441;44.758;37.686;2023-07-31T02:59:23;24.64;54.57
78902;DHT22;70441;44.758;37.686;2023-07-31T03:00:26;24.69;54.05
78902;DHT22;70441;44.758;37.686;2023-07-31T03:01:28;24.76;53.78
78902;DHT22;70441;44.758;37.686;2023-07-31T03:02:29;24.76;53.90
78902;DHT22;70441;44.758;37.686;2023-07-31T03:03:31;24.88;53.79
78902;DHT22;70441;44.758;37.686;2023-07-31T03:04:32;24.98;53.46
78902;DHT22;70441;44.758;37.686;2023-07-31T03:05:34;25.06;53.09
78902;DHT22;70441;44.758;37.686;2023-07-31T03:06:35;25.17;53.09
78902;DHT22;70441;44.758;37.686;2023-07-31T03:07:37;25.20;53.19
78902;DHT22;70441;44.758;37.686;2023-07-31T03:08:38;25.02;54.14
78902;DHT22;70441;44.758;37.686;2023-07-31T03:09:40;24.86;54.18
78902;DHT22;70441;44.758;37.686;2023-07-31T03:10:42;24.79;54.42
78902;DHT22;70441;44.758;37.686;2023-07-31T03:11:43;24.75;54.46
78902;DHT22;70441;44.758;37.686;2023-07-31T03:12:48;24.71;54.71
78902;DHT22;70441;44.758;37.686;2023-07-31T03:13:49;24.71;54.93
78902;DHT22;70441;44.758;37.686;2023-07-31T03:14:51;24.74;55.11
78902;DHT22;70441;44.758;37.686;2023-07-31T03:15:53;24.83;55.09
78902;DHT22;70441;44.758;37.686;2023-07-31T03:16:54;24.98;54.32
78902;DHT22;70441;44.758;37.686;2023-07-31T03:17:56;25.12;54.15
78902;DHT22;70441;44.758;37.686;2023-07-31T03:18:57;25.23;53.73
78902;DHT22;70441;44.758;37.686;2023-07-31T03:19:59;25.24;53.35
78902;DHT22;70441;44.758;37.686;2023-07-31T03:21:06;25.35;52.74
78902;DHT22;70441;44.758;37.686;2023-07-31T03:22:07;25.47;52.90
78902;DHT22;70441;44.758;37.686;2023-07-31T03:23:09;25.57;52.39
78902;DHT22;70441;44.758;37.686;2023-07-31T03:24:16;25.66;52.30
78902;DHT22;70441;44.758;37.686;2023-07-31T03:25:17;25.76;51.97
78902;DHT22;70441;44.758;37.686;2023-07-31T03:26:19;25.92;51.85
78902;DHT22;70441;44.758;37.686;2023-07-31T03:27:20;26.06;51.31
78902;DHT22;70441;44.758;37.686;2023-07-31T03:28:22;26.21;51.39
78902;DHT22;70441;44.758;37.686;2023-07-31T03:29:24;26.25;50.29
78902;DHT22;70441;44.758;37.686;2023-07-31T03:30:25;26.30;50.42
78902;DHT22;70441;44.758;37.686;2023-07-31T03:31:27;26.40;49.91
78902;DHT22;70441;44.758;37.686;2023-07-31T03:32:29;26.47;50.48
78902;DHT22;70441;44.758;37.686;2023-07-31T03:33:31;26.56;50.22
78902;DHT22;70441;44.758;37.686;2023-07-31T03:34:32;26.68;50.00
78902;DHT22;70441;44.758;37.686;2023-07-31T03:35:35;26.78;49.60
78902;DHT22;70441;44.758;37.686;2023-07-31T03:36:36;26.82;49.27
78902;DHT22;70441;44.758;37.686;2023-07-31T03:37:38;26.90;49.47
78902;DHT22;70441;44.758;37.686;2023-07-31T03:38:41;26.96;48.99
78902;DHT22;70441;44.758;37.686;2023-07-31T03:39:43;27.04;49.29
78902;DHT22;70441;44.758;37.686;2023-07-31T03:40:44;27.11;49.32
78902;DHT22;70441;44.758;37.686;2023-07-31T03:41:46;27.17;49.54
78902;DHT22;70441;44.758;37.686;2023-07-31T03:42:47;27.18;49.42
78902;DHT22;70441;44.758;37.686;2023-07-31T03:43:51;27.21;48.62
78902;DHT22;70441;44.758;37.686;2023-07-31T03:44:59;27.28;48.43
78902;DHT22;70441;44.758;37.686;2023-07-31T03:46:01;27.35;48.75
78902;DHT22;70441;44.758;37.686;2023-07-31T03:47:03;27.35;48.86
78902;DHT22;70441;44.758;37.686;2023-07-31T03:48:05;27.35;48.41
78902;DHT22;70441;44.758;37.686;2023-07-31T03:49:07;27.41;49.06
78902;DHT22;70441;44.758;37.686;2023-07-31T03:50:10;27.43;47.86
78902;DHT22;70441;44.758;37.686;2023-07-31T03:51:11;27.50;47.97
78902;DHT22;70441;44.758;37.686;2023-07-31T03:52:13;27.55;47.67
78902;DHT22;70441;44.758;37.686;2023-07-31T03:53:14;27.60;47.51
78902;DHT22;70441;44.758;37.686;2023-07-31T03:54:16;27.63;47.29
78902;DHT22;70441;44.758;37.686;2023-07-31T03:55:18;27.70;47.20
78902;DHT22;70441;44.758;37.686;2023-07-31T03:56:19;27.70;47.00
78902;DHT22;70441;44.758;37.686;2023-07-31T03:57:21;27.70;46.71
78902;DHT22;70441;44.758;37.686;2023-07-31T03:58:22;27.71;46.89
78902;DHT22;70441;44.758;37.686;2023-07-31T03:59:24;27.71;46.41
78902;DHT22;70441;44.758;37.686;2023-07-31T04:00:26;27.76;46.08
78902;DHT22;70441;44.758;37.686;2023-07-31T04:01:28;27.89;45.66
78902;DHT22;70441;44.758;37.686;2023-07-31T04:02:30;28.00;45.70
78902;DHT22;70441;44.758;37.686;2023-07-31T04:03:31;28.07;44.87
78902;DHT22;70441;44.758;37.686;2023-07-31T04:04:33;28.15;44.67
78902;DHT22;70441;44.758;37.686;2023-07-31T04:05:38;28.11;43.87
78902;DHT22;70441;44.758;37.686;2023-07-31T04:06:40;27.87;44.30
78902;DHT22;70441;44.758;37.686;2023-07-31T04:07:41;27.66;45.07
78902;DHT22;70441;44.758;37.686;2023-07-31T04:08:44;27.70;45.57
78902;DHT22;70441;44.758;37.686;2023-07-31T04:09:46;27.82;45.56
78902;DHT22;70441;44.758;37.686;2023-07-31T04:10:48;27.89;45.20
78902;DHT22;70441;44.758;37.686;2023-07-31T04:11:49;27.97;45.73
78902;DHT22;70441;44.758;37.686;2023-07-31T04:12:51;28.21;44.57
78902;DHT22;70441;44.758;37.686;2023-07-31T04:13:53;28.29;44.62
78902;DHT22;70441;44.758;37.686;2023-07-31T04:14:54;28.21;44.77
78902;DHT22;70441;44.758;37.686;2023-07-31T04:15:56;28.12;44.12
78902;DHT22;70441;44.758;37.686;2023-07-31T04:16:58;28.15;43.34
78902;DHT22;70441;44.758;37.686;2023-07-31T04:17:59;28.07;44.21
78902;DHT22;70441;44.758;37.686;2023-07-31T04:19:01;28.31;44.57
78902;DHT22;70441;44.758;37.686;2023-07-31T04:20:04;28.63;43.21
78902;DHT22;70441;44.758;37.686;2023-07-31T04:21:05;28.86;42.75
78902;DHT22;70441;44.758;37.686;2023-07-31T04:22:07;28.97;42.15
78902;DHT22;70441;44.758;37.686;2023-07-31T04:23:08;28.98;41.95
78902;DHT22;70441;44.758;37.686;2023-07-31T04:24:10;28.77;43.43
78902;DHT22;70441;44.758;37.686;2023-07-31T04:25:12;28.91;41.94
78902;DHT22;70441;44.758;37.686;2023-07-31T04:26:13;29.08;42.34
78902;DHT22;70441;44.758;37.686;2023-07-31T04:27:15;29.09;42.00
78902;DHT22;70441;44.758;37.686;2023-07-31T04:28:22;28.88;42.11
78902;DHT22;70441;44.758;37.686;2023-07-31T04:29:23;28.83;43.36
78902;DHT22;70441;44.758;37.686;2023-07-31T04:30:25;29.07;42.22
78902;DHT22;70441;44.758;37.686;2023-07-31T04:31:29;29.30;42.99
78902;DHT22;70441;44.758;37.686;2023-07-31T04:32:30;29.57;42.43
78902;DHT22;70441;44.758;37.686;2023-07-31T04:33:33;29.74;41.18
78902;DHT22;70441;44.758;37.686;2023-07-31T04:34:35;29.81;41.67
78902;DHT22;70441;44.758;37.686;2023-07-31T04:35:37;29.89;41.12
78902;DHT22;70441;44.758;37.686;2023-07-31T04:36:38;29.99;41.12
78902;DHT22;70441;44.758;37.686;2023-07-31T04:37:40;30.06;41.16
78902;DHT22;70441;44.758;37.686;2023-07-31T04:38:42;30.15;40.68
78902;DHT22;70441;44.758;37.686;2023-07-31T04:39:44;30.16;40.04
78902;DHT22;70441;44.758;37.686;2023-07-31T04:40:46;30.23;41.08
78902;DHT22;70441;44.758;37.686;2023-07-31T04:41:47;30.36;40.62
78902;DHT22;70441;44.758;37.686;2023-07-31T04:42:49;30.48;40.32
78902;DHT22;70441;44.758;37.686;2023-07-31T04:43:51;30.54;40.06
78902;DHT22;70441;44.758;37.686;2023-07-31T04:44:52;30.58;40.05
78902;DHT22;70441;44.758;37.686;2023-07-31T04:45:54;30.67;40.37
78902;DHT22;70441;44.758;37.686;2023-07-31T04:46:56;30.74;39.05
78902;DHT22;70441;44.758;37.686;2023-07-31T04:47:57;30.76;40.18
78902;DHT22;70441;44.758;37.686;2023-07-31T04:49:00;30.88;38.41
78902;DHT22;70441;44.758;37.686;2023-07-31T04:50:02;30.88;38.73
78902;DHT22;70441;44.758;37.686;2023-07-31T04:51:04;30.95;39.00
78902;DHT22;70441;44.758;37.686;2023-07-31T04:52:07;30.99;38.32
78902;DHT22;70441;44.758;37.686;2023-07-31T04:53:08;30.96;39.07
78902;DHT22;70441;44.758;37.686;2023-07-31T04:54:10;30.89;38.01
78902;DHT22;70441;44.758;37.686;2023-07-31T04:55:13;30.85;38.51
78902;DHT22;70441;44.758;37.686;2023-07-31T04:56:15;30.98;38.05
78902;DHT22;70441;44.758;37.686;2023-07-31T04:57:17;31.09;37.97
78902;DHT22;70441;44.758;37.686;2023-07-31T04:58:19;31.09;38.02
78902;DHT22;70441;44.758;37.686;2023-07-31T04:59:20;31.20;39.19
78902;DHT22;70441;44.758;37.686;2023-07-31T05:00:22;31.31;38.09
78902;DHT22;70441;44.758;37.686;2023-07-31T05:01:23;31.34;37.93
78902;DHT22;70441;44.758;37.686;2023-07-31T05:02:25;31.47;37.41
78902;DHT22;70441;44.758;37.686;2023-07-31T05:03:27;31.48;37.43
78902;DHT22;70441;44.758;37.686;2023-07-31T05:04:28;31.50;37.52
78902;DHT22;70441;44.758;37.686;2023-07-31T05:05:30;31.52;37.12
78902;DHT22;70441;44.758;37.686;2023-07-31T05:06:32;31.58;37.78
78902;DHT22;70441;44.758;37.686;2023-07-31T05:07:33;31.74;36.84
78902;DHT22;70441;44.758;37.686;2023-07-31T05:08:35;31.85;36.86
78902;DHT22;70441;44.758;37.686;2023-07-31T05:09:36;31.88;36.74
78902;DHT22;70441;44.758;37.686;2023-07-31T05:10:38;31.94;36.50
78902;DHT22;70441;44.758;37.686;2023-07-31T05:11:40;31.99;36.17
78902;DHT22;70441;44.758;37.686;2023-07-31T05:12:47;32.06;36.70
78902;DHT22;70441;44.758;37.686;2023-07-31T05:13:49;32.12;37.02
78902;DHT22;70441;44.758;37.686;2023-07-31T05:14:53;32.23;36.90
78902;DHT22;70441;44.758;37.686;2023-07-31T05:15:55;32.33;36.19
78902;DHT22;70441;44.758;37.686;2023-07-31T05:16:57;32.37;36.15
78902;DHT22;70441;44.758;37.686;2023-07-31T05:17:58;32.48;37.14
78902;DHT22;70441;44.758;37.686;2023-07-31T05:19:00;32.65;35.69
78902;DHT22;70441;44.758;37.686;2023-07-31T05:20:01;32.74;35.48
78902;DHT22;70441;44.758;37.686;2023-07-31T05:21:03;32.76;35.42
78902;DHT22;70441;44.758;37.686;2023-07-31T05:22:05;32.58;35.54
78902;DHT22;70441;44.758;37.686;2023-07-31T05:23:06;32.44;36.73
78902;DHT22;70441;44.758;37.686;2023-07-31T05:24:08;32.41;36.64
78902;DHT22;70441;44.758;37.686;2023-07-31T05:25:10;32.47;35.75
78902;DHT22;70441;44.758;37.686;2023-07-31T05:26:16;32.55;36.05
78902;DHT22;70441;44.758;37.686;2023-07-31T05:27:19;32.62;36.31
78902;DHT22;70441;44.758;37.686;2023-07-31T05:28:21;32.69;36.28
78902;DHT22;70441;44.758;37.686;2023-07-31T05:29:23;32.74;35.89
78902;DHT22;70441;44.758;37.686;2023-07-31T05:30:25;32.69;36.81
78902;DHT22;70441;44.758;37.686;2023-07-31T05:31:26;32.82;36.06
78902;DHT22;70441;44.758;37.686;2023-07-31T05:32:28;32.96;36.15
78902;DHT22;70441;44.758;37.686;2023-07-31T05:33:29;33.18;36.04
78902;DHT22;70441;44.758;37.686;2023-07-31T05:34:32;33.17;35.37
78902;DHT22;70441;44.758;37.686;2023-07-31T05:35:33;33.27;34.59
78902;DHT22;70441;44.758;37.686;2023-07-31T05:36:35;33.28;35.41
78902;DHT22;70441;44.758;37.686;2023-07-31T05:37:36;33.28;34.86
78902;DHT22;70441;44.758;37.686;2023-07-31T05:38:46;33.34;34.55
78902;DHT22;70441;44.758;37.686;2023-07-31T05:39:48;33.45;34.52
78902;DHT22;70441;44.758;37.686;2023-07-31T05:40:49;33.59;34.18
78902;DHT22;70441;44.758;37.686;2023-07-31T05:41:51;33.82;34.67
78902;DHT22;70441;44.758;37.686;2023-07-31T05:42:52;34.01;33.28
78902;DHT22;70441;44.758;37.686;2023-07-31T05:43:54;33.96;34.11
78902;DHT22;70441;44.758;37.686;2023-07-31T05:44:56;34.07;33.89
78902;DHT22;70441;44.758;37.686;2023-07-31T05:45:57;34.18;33.23
78902;DHT22;70441;44.758;37.686;2023-07-31T05:46:59;34.25;32.92
78902;DHT22;70441;44.758;37.686;2023-07-31T05:48:00;34.24;33.43
78902;DHT22;70441;44.758;37.686;2023-07-31T05:49:02;34.18;32.99
78902;DHT22;70441;44.758;37.686;2023-07-31T05:50:04;34.14;34.14
78902;DHT22;70441;44.758;37.686;2023-07-31T05:51:06;34.10;33.67
78902;DHT22;70441;44.758;37.686;2023-07-31T05:52:08;34.11;33.79
78902;DHT22;70441;44.758;37.686;2023-07-31T05:53:09;34.10;34.12
78902;DHT22;70441;44.758;37.686;2023-07-31T05:54:11;34.21;33.86
78902;DHT22;70441;44.758;37.686;2023-07-31T05:55:13;34.27;33.43
78902;DHT22;70441;44.758;37.686;2023-07-31T05:56:14;34.33;32.23
78902;DHT22;70441;44.758;37.686;2023-07-31T05:57:16;33.92;33.44
78902;DHT22;70441;44.758;37.686;2023-07-31T05:58:17;33.97;34.20
78902;DHT22;70441;44.758;37.686;2023-07-31T05:59:19;34.25;33.35
78902;DHT22;70441;44.758;37.686;2023-07-31T06:00:21;34.52;33.46
78902;DHT22;70441;44.758;37.686;2023-07-31T06:01:22;34.63;32.78
78902;DHT22;70441;44.758;37.686;2023-07-31T06:02:24;34.58;33.15
78902;DHT22;70441;44.758;37.686;2023-07-31T06:03:25;34.59;33.28
78902;DHT22;70441;44.758;37.686;2023-07-31T06:04:27;34.56;33.13
78902;DHT22;70441;44.758;37.686;2023-07-31T06:05:29;34.60;32.96
78902;DHT22;70441;44.758;37.686;2023-07-31T06:06:31;34.59;33.12
78902;DHT22;70441;44.758;37.686;2023-07-31T06:07:33;34.53;33.42
78902;DHT22;70441;44.758;37.686;2023-07-31T06:08:34;34.60;33.67
78902;DHT22;70441;44.758;37.686;2023-07-31T06:09:36;34.49;32.33
78902;DHT22;70441;44.758;37.686;2023-07-31T06:10:37;34.34;33.23
78902;DHT22;70441;44.758;37.686;2023-07-31T06:11:39;34.33;33.34
78902;DHT22;70441;44.758;37.686;2023-07-31T06:12:41;34.33;33.65
78902;DHT22;70441;44.758;37.686;2023-07-31T06:13:42;34.40;33.54
78902;DHT22;70441;44.758;37.686;2023-07-31T06:14:46;34.42;34.12
78902;DHT22;70441;44.758;37.686;2023-07-31T06:15:47;34.49;33.20
78902;DHT22;70441;44.758;37.686;2023-07-31T06:16:49;34.49;34.20
78902;DHT22;70441;44.758;37.686;2023-07-31T06:17:54;34.49;33.17
78902;DHT22;70441;44.758;37.686;2023-07-31T06:18:55;34.42;33.08
78902;DHT22;70441;44.758;37.686;2023-07-31T06:19:57;34.34;33.21
78902;DHT22;70441;44.758;37.686;2023-07-31T06:20:59;34.35;33.35
78902;DHT22;70441;44.758;37.686;2023-07-31T06:22:00;34.29;33.28
78902;DHT22;70441;44.758;37.686;2023-07-31T06:23:02;34.23;33.83
78902;DHT22;70441;44.758;37.686;2023-07-31T06:24:08;34.29;33.72
78902;DHT22;70441;44.758;37.686;2023-07-31T06:25:10;34.37;34.39
78902;DHT22;70441;44.758;37.686;2023-07-31T06:26:11;34.34;34.23
78902;DHT22;70441;44.758;37.686;2023-07-31T06:27:13;34.33;33.76
78902;DHT22;70441;44.758;37.686;2023-07-31T06:28:14;34.29;33.56
78902;DHT22;70441;44.758;37.686;2023-07-31T06:29:16;34.23;33.52
78902;DHT22;70441;44.758;37.686;2023-07-31T06:30:18;34.17;33.81
78902;DHT22;70441;44.758;37.686;2023-07-31T06:31:19;34.20;34.48
78902;DHT22;70441;44.758;37.686;2023-07-31T06:32:24;34.25;33.43
78902;DHT22;70441;44.758;37.686;2023-07-31T06:33:25;34.20;33.20
78902;DHT22;70441;44.758;37.686;2023-07-31T06:34:27;34.07;33.40
78902;DHT22;70441;44.758;37.686;2023-07-31T06:35:28;34.04;33.53